createdAt,value
2024-02-13T00:00:59.738Z,5.40
2024-02-13T00:03:26.737Z,4.50
2024-02-13T00:05:53.423Z,5.30
2024-02-13T00:08:20.651Z,3.73
2024-02-13T00:10:49.017Z,3.33
2024-02-13T00:13:15.961Z,3.40
2024-02-13T00:15:42.533Z,4.47
2024-02-13T00:18:09.574Z,3.37
2024-02-13T00:20:36.869Z,3.33
2024-02-13T00:23:05.514Z,6.80
2024-02-13T00:25:33.999Z,3.57
2024-02-13T00:28:00.563Z,3.60
2024-02-13T00:30:28.463Z,10.70
2024-02-13T00:33:10.668Z,2.87
2024-02-13T00:35:57.663Z,4.60
2024-02-13T00:38:25.309Z,9.77
2024-02-13T00:40:51.877Z,5.80
2024-02-13T00:43:20.735Z,3.30
2024-02-13T00:45:50.325Z,4.20
2024-02-13T00:48:20.840Z,4.17
2024-02-13T00:50:49.408Z,6.47
2024-02-13T00:53:17.099Z,3.77
2024-02-13T00:55:44.448Z,5.40
2024-02-13T00:58:11.445Z,9.70
2024-02-13T01:00:41.043Z,4.80
2024-02-13T01:03:08.147Z,7.80
2024-02-13T01:05:38.289Z,3.90
2024-02-13T01:08:05.953Z,4.70
2024-02-13T01:10:32.573Z,4.80
2024-02-13T01:13:00.649Z,4.00
2024-02-13T01:15:28.248Z,4.53
2024-02-13T01:17:57.636Z,8.27
2024-02-13T01:20:25.348Z,5.03
2024-02-13T01:22:55.070Z,5.23
2024-02-13T01:25:24.213Z,7.80
2024-02-13T01:27:51.103Z,8.07
2024-02-13T01:30:18.100Z,9.03
2024-02-13T01:32:44.941Z,4.20
2024-02-13T01:35:13.044Z,5.77
2024-02-13T01:37:41.204Z,3.20
2024-02-13T01:40:08.760Z,4.20
2024-02-13T01:42:38.406Z,3.67
2024-02-13T01:45:07.980Z,3.43
2024-02-13T01:47:43.656Z,3.60
2024-02-13T01:50:12.007Z,3.43
2024-02-13T01:52:38.993Z,3.93
2024-02-13T01:55:07.381Z,8.60
2024-02-13T01:57:37.380Z,6.73
2024-02-13T02:00:14.496Z,3.73
2024-02-13T02:02:47.055Z,5.23
2024-02-13T02:05:14.934Z,3.37
2024-02-13T02:07:50.806Z,8.40
2024-02-13T02:10:17.437Z,6.20
2024-02-13T02:12:50.847Z,5.30
2024-02-13T02:15:18.033Z,7.40
2024-02-13T02:17:54.264Z,4.73
2024-02-13T02:20:22.805Z,10.57
2024-02-13T02:22:51.301Z,10.30
2024-02-13T02:25:23.369Z,13.87
2024-02-13T02:28:09.988Z,8.20
2024-02-13T02:30:49.064Z,8.57
2024-02-13T02:33:16.084Z,4.90
2024-02-13T02:35:43.680Z,6.40
2024-02-13T02:38:11.495Z,5.20
2024-02-13T02:40:41.437Z,6.00
2024-02-13T02:43:08.201Z,10.47
2024-02-13T02:45:35.093Z,9.73
2024-02-13T02:48:02.018Z,8.47
2024-02-13T02:50:28.962Z,7.33
2024-02-13T02:52:55.618Z,6.17
2024-02-13T02:55:23.310Z,10.63
2024-02-13T02:57:50.475Z,4.60
2024-02-13T03:00:19.736Z,8.80
2024-02-13T03:02:56.045Z,8.97
2024-02-13T03:05:22.780Z,7.40
2024-02-13T03:07:49.454Z,15.53
2024-02-13T03:10:16.047Z,14.40
2024-02-13T03:12:42.628Z,9.70
2024-02-13T03:15:09.711Z,9.03
2024-02-13T03:17:40.014Z,13.00
2024-02-13T03:20:11.721Z,12.27
2024-02-13T03:22:53.581Z,17.83
2024-02-13T03:25:20.364Z,11.37
2024-02-13T03:28:06.857Z,8.00
2024-02-13T03:30:34.346Z,6.43
2024-02-13T03:33:02.250Z,9.57
2024-02-13T03:35:31.626Z,10.70
2024-02-13T03:37:58.830Z,9.87
2024-02-13T03:40:25.777Z,7.97
2024-02-13T03:42:52.395Z,9.20
2024-02-13T03:45:19.090Z,19.87
2024-02-13T03:47:54.798Z,8.27
2024-02-13T03:50:21.600Z,7.00
2024-02-13T03:52:48.341Z,14.07
2024-02-13T03:55:15.130Z,13.90
2024-02-13T03:57:41.743Z,10.83
2024-02-13T04:00:09.059Z,14.03
2024-02-13T04:02:36.033Z,8.90
2024-02-13T04:05:02.691Z,12.30
2024-02-13T04:07:30.928Z,12.03
2024-02-13T04:09:57.580Z,13.70
2024-02-13T04:12:24.429Z,8.60
2024-02-13T04:14:51.208Z,13.13
2024-02-13T04:17:19.349Z,9.53
2024-02-13T04:19:46.127Z,9.17
2024-02-13T04:22:12.716Z,8.57
2024-02-13T04:24:39.350Z,10.60
2024-02-13T04:27:06.245Z,9.73
2024-02-13T04:29:33.673Z,6.53
2024-02-13T04:32:00.539Z,19.50
2024-02-13T04:34:30.786Z,6.87
2024-02-13T04:36:58.786Z,7.33
2024-02-13T04:39:25.903Z,11.60
2024-02-13T04:41:52.722Z,11.70
2024-02-13T04:44:21.203Z,9.77
2024-02-13T04:46:47.844Z,8.50
2024-02-13T04:49:15.059Z,17.70
2024-02-13T04:51:41.712Z,13.87
2024-02-13T04:54:08.417Z,13.17
2024-02-13T04:56:35.192Z,11.80
2024-02-13T04:59:03.663Z,18.83
2024-02-13T05:01:31.041Z,19.30
2024-02-13T05:04:15.760Z,10.37
2024-02-13T05:07:00.806Z,11.93
2024-02-13T05:09:27.447Z,13.53
2024-02-13T05:11:54.700Z,13.70
2024-02-13T05:14:21.467Z,11.70
2024-02-13T05:16:48.635Z,8.73
2024-02-13T05:19:16.510Z,13.20
2024-02-13T05:21:43.458Z,13.07
2024-02-13T05:24:10.551Z,10.77
2024-02-13T05:26:37.448Z,15.87
2024-02-13T05:29:05.725Z,20.23
2024-02-13T05:31:32.504Z,23.20
2024-02-13T05:33:59.364Z,10.70
2024-02-13T05:36:27.182Z,17.60
2024-02-13T05:38:54.129Z,19.03
2024-02-13T05:41:20.903Z,14.67
2024-02-13T05:43:47.599Z,13.13
2024-02-13T05:46:14.731Z,9.13
2024-02-13T05:48:44.108Z,11.33
2024-02-13T05:51:15.904Z,10.63
2024-02-13T05:53:43.722Z,25.20
2024-02-13T05:56:14.166Z,13.60
2024-02-13T05:58:43.067Z,15.10
2024-02-13T06:01:14.144Z,13.77
2024-02-13T06:03:41.577Z,15.83
2024-02-13T06:06:08.508Z,14.20
2024-02-13T06:08:36.125Z,24.10
2024-02-13T06:11:03.267Z,16.70
2024-02-13T06:13:30.336Z,18.60
2024-02-13T06:15:56.942Z,14.93
2024-02-13T06:18:24.495Z,19.10
2024-02-13T06:20:51.718Z,17.60
2024-02-13T06:23:18.638Z,19.47
2024-02-13T06:25:45.412Z,13.83
2024-02-13T06:28:12.166Z,15.27
2024-02-13T06:30:40.443Z,20.77
2024-02-13T06:33:07.247Z,13.67
2024-02-13T06:35:34.686Z,19.10
2024-02-13T06:38:12.256Z,19.60
2024-02-13T06:40:39.667Z,16.27
2024-02-13T06:43:06.638Z,19.77
2024-02-13T06:45:33.259Z,22.70
2024-02-13T06:48:00.094Z,20.33
2024-02-13T06:50:26.920Z,20.57
2024-02-13T06:52:55.299Z,16.87
2024-02-13T06:55:22.011Z,16.77
2024-02-13T06:57:57.033Z,22.50
2024-02-13T07:00:26.503Z,25.40
2024-02-13T07:02:55.257Z,29.07
2024-02-13T07:05:22.032Z,23.10
2024-02-13T07:07:50.174Z,24.27
2024-02-13T07:10:17.781Z,29.00
2024-02-13T07:12:57.879Z,24.80
2024-02-13T07:15:25.219Z,23.10
2024-02-13T07:17:57.068Z,24.73
2024-02-13T07:20:27.742Z,21.60
2024-02-13T07:22:54.438Z,30.73
2024-02-13T07:25:21.192Z,26.70
2024-02-13T07:27:48.559Z,28.30
2024-02-13T07:30:16.226Z,26.33
2024-02-13T07:32:43.390Z,23.53
2024-02-13T07:35:10.576Z,28.47
2024-02-13T07:37:48.411Z,31.60
2024-02-13T07:40:15.305Z,25.57
2024-02-13T07:42:42.065Z,25.87
2024-02-13T07:45:09.528Z,24.80
2024-02-13T07:47:54.962Z,31.80
2024-02-13T07:50:22.477Z,24.80
2024-02-13T07:52:49.179Z,29.03
2024-02-13T07:55:15.750Z,24.60
2024-02-13T07:57:42.756Z,22.73
2024-02-13T08:00:11.815Z,25.47
2024-02-13T08:02:38.493Z,29.10
2024-02-13T08:05:06.307Z,24.90
2024-02-13T08:07:34.652Z,24.00
2024-02-13T08:10:01.203Z,22.83
2024-02-13T08:12:27.994Z,19.90
2024-02-13T08:14:55.318Z,21.97
2024-02-13T08:17:22.155Z,24.57
2024-02-13T08:19:49.099Z,23.80
2024-02-13T08:22:19.249Z,24.87
2024-02-13T08:24:45.915Z,23.67
2024-02-13T08:27:13.057Z,24.90
2024-02-13T08:29:39.669Z,24.00
2024-02-13T08:32:07.654Z,25.20
2024-02-13T08:34:34.924Z,27.27
2024-02-13T08:37:01.728Z,29.43
2024-02-13T08:39:28.318Z,29.53
2024-02-13T08:41:56.036Z,32.13
2024-02-13T08:44:22.871Z,29.20
2024-02-13T08:46:50.239Z,26.13
2024-02-13T08:49:17.859Z,29.07
2024-02-13T08:51:44.810Z,39.53
2024-02-13T08:54:12.738Z,32.00
2024-02-13T08:56:40.727Z,29.43
2024-02-13T08:59:07.962Z,26.13
2024-02-13T09:01:35.113Z,30.37
2024-02-13T09:04:02.336Z,29.00
2024-02-13T09:06:48.659Z,25.80
2024-02-13T09:09:34.975Z,25.50
2024-02-13T09:12:05.279Z,33.47
2024-02-13T09:14:32.573Z,31.20
2024-02-13T09:17:00.552Z,22.23
2024-02-13T09:19:28.332Z,27.30
2024-02-13T09:21:55.128Z,28.20
2024-02-13T09:24:24.209Z,29.17
2024-02-13T09:26:52.694Z,28.23
2024-02-13T09:29:19.889Z,33.00
2024-02-13T09:31:47.493Z,28.27
2024-02-13T09:34:14.680Z,24.97
2024-02-13T09:36:42.094Z,26.13
2024-02-13T09:39:10.098Z,27.70
2024-02-13T09:41:43.288Z,26.13
2024-02-13T09:44:10.210Z,21.83
2024-02-13T09:46:39.962Z,29.00
2024-02-13T09:49:08.242Z,27.10
2024-02-13T09:51:35.087Z,26.70
2024-02-13T09:54:04.548Z,28.20
2024-02-13T09:56:32.943Z,20.80
2024-02-13T09:59:00.644Z,25.07
2024-02-13T10:01:27.394Z,25.20
2024-02-13T10:03:54.184Z,23.97
2024-02-13T10:06:21.114Z,21.30
2024-02-13T10:08:53.333Z,23.40
2024-02-13T10:11:35.388Z,25.13
2024-02-13T10:14:04.154Z,18.63
2024-02-13T10:16:32.015Z,20.70
2024-02-13T10:19:02.985Z,20.37
2024-02-13T10:21:31.139Z,20.27
2024-02-13T10:24:08.607Z,21.60
2024-02-13T10:26:37.042Z,19.60
2024-02-13T10:29:04.624Z,19.17
2024-02-13T10:31:39.025Z,23.03
2024-02-13T10:34:12.635Z,31.30
2024-02-13T10:36:44.331Z,31.20
2024-02-13T10:39:13.718Z,25.07
2024-02-13T10:41:42.125Z,22.27
2024-02-13T10:44:14.555Z,19.20
2024-02-13T10:46:42.289Z,21.83
2024-02-13T10:49:25.373Z,24.13
2024-02-13T10:51:54.709Z,20.57
2024-02-13T10:54:25.272Z,24.33
2024-02-13T10:56:56.173Z,20.23
2024-02-13T10:59:24.006Z,17.90
2024-02-13T11:01:52.796Z,18.97
2024-02-13T11:04:21.001Z,22.13
2024-02-13T11:06:47.752Z,16.93
2024-02-13T11:09:14.454Z,21.37
2024-02-13T11:11:45.909Z,20.23
2024-02-13T11:14:23.120Z,19.10
2024-02-13T11:17:13.308Z,15.70
2024-02-13T11:20:00.522Z,27.00
2024-02-13T11:22:38.595Z,15.20
2024-02-13T11:25:12.321Z,13.53
2024-02-13T11:28:07.031Z,20.77
2024-02-13T11:30:35.781Z,21.60
2024-02-13T11:33:07.827Z,21.80
2024-02-13T11:35:40.787Z,14.00
2024-02-13T11:38:17.325Z,16.63
2024-02-13T11:40:45.197Z,18.57
2024-02-13T11:43:22.642Z,13.80
2024-02-13T11:45:50.346Z,23.97
2024-02-13T11:48:22.269Z,18.10
2024-02-13T11:50:49.115Z,15.17
2024-02-13T11:53:19.682Z,17.63
2024-02-13T11:55:46.644Z,15.20
2024-02-13T11:58:21.104Z,18.60
2024-02-13T12:01:05.568Z,16.50
2024-02-13T12:03:41.302Z,18.90
2024-02-13T12:06:10.422Z,19.07
2024-02-13T12:08:42.735Z,16.43
2024-02-13T12:11:09.980Z,20.57
2024-02-13T12:13:37.645Z,11.83
2024-02-13T12:16:05.675Z,13.50
2024-02-13T12:18:32.732Z,12.33
2024-02-13T12:21:00.849Z,9.70
2024-02-13T12:23:27.690Z,16.83
2024-02-13T12:26:07.398Z,11.97
2024-02-13T12:28:34.392Z,17.33
2024-02-13T12:31:03.628Z,12.03
2024-02-13T12:33:33.450Z,12.87
2024-02-13T12:36:08.876Z,12.23
2024-02-13T12:38:39.292Z,9.03
2024-02-13T12:41:06.204Z,11.40
2024-02-13T12:43:32.856Z,13.37
2024-02-13T12:46:03.365Z,12.50
2024-02-13T12:48:37.935Z,10.60
2024-02-13T12:51:10.583Z,10.47
2024-02-13T12:53:40.357Z,14.13
2024-02-13T12:56:09.685Z,11.37
2024-02-13T12:58:36.350Z,13.77
2024-02-13T13:01:05.188Z,10.10
2024-02-13T13:03:32.069Z,9.73
2024-02-13T13:05:59.588Z,13.00
2024-02-13T13:08:28.080Z,12.60
2024-02-13T13:10:54.984Z,9.27
2024-02-13T13:13:23.916Z,11.53
2024-02-13T13:15:50.848Z,7.43
2024-02-13T13:18:21.280Z,11.17
2024-02-13T13:20:49.225Z,8.37
2024-02-13T13:23:16.671Z,9.53
2024-02-13T13:25:50.076Z,6.57
2024-02-13T13:28:19.293Z,10.13
2024-02-13T13:30:47.454Z,11.40
2024-02-13T13:33:19.606Z,10.10
2024-02-13T13:35:48.002Z,7.33
2024-02-13T13:38:18.235Z,7.60
2024-02-13T13:40:45.212Z,8.00
2024-02-13T13:43:12.231Z,9.73
2024-02-13T13:45:53.961Z,8.30
2024-02-13T13:48:21.566Z,5.83
2024-02-13T13:50:48.886Z,10.73
2024-02-13T13:53:15.855Z,14.90
2024-02-13T13:55:42.732Z,6.00
2024-02-13T13:58:09.289Z,5.97
2024-02-13T14:00:36.227Z,8.80
2024-02-13T14:03:03.772Z,5.67
2024-02-13T14:05:35.147Z,6.80
2024-02-13T14:08:06.161Z,7.97
2024-02-13T14:10:34.390Z,5.43
2024-02-13T14:13:06.374Z,9.27
2024-02-13T14:15:35.459Z,8.73
2024-02-13T14:18:05.559Z,7.73
2024-02-13T14:20:36.203Z,9.30
2024-02-13T14:23:03.090Z,9.27
2024-02-13T14:25:29.680Z,6.03
2024-02-13T14:27:56.565Z,15.47
2024-02-13T14:30:23.471Z,7.20
2024-02-13T14:32:50.982Z,6.40
2024-02-13T14:35:18.792Z,7.30
2024-02-13T14:37:57.547Z,7.77
2024-02-13T14:40:24.409Z,9.07
2024-02-13T14:42:51.048Z,3.43
2024-02-13T14:45:17.640Z,6.30
2024-02-13T14:47:44.309Z,5.50
2024-02-13T14:50:12.058Z,8.90
2024-02-13T14:52:40.162Z,4.30
2024-02-13T14:55:08.079Z,4.90
2024-02-13T14:57:41.661Z,5.73
2024-02-13T15:00:14.403Z,2.97
2024-02-13T15:02:54.013Z,5.70
2024-02-13T15:05:22.788Z,8.10
2024-02-13T15:07:53.364Z,4.50
2024-02-13T15:10:20.274Z,11.57
2024-02-13T15:12:47.302Z,3.27
2024-02-13T15:15:18.330Z,3.57
2024-02-13T15:18:05.433Z,6.83
2024-02-13T15:20:32.454Z,9.10
2024-02-13T15:22:59.047Z,10.53
2024-02-13T15:25:25.786Z,7.87
2024-02-13T15:27:52.382Z,8.37
2024-02-13T15:30:18.969Z,12.53
2024-02-13T15:32:58.196Z,3.67
2024-02-13T15:35:32.554Z,5.80
2024-02-13T15:38:17.936Z,10.73
2024-02-13T15:41:03.272Z,4.80
2024-02-13T15:43:48.606Z,6.63
2024-02-13T15:46:33.890Z,5.07
2024-02-13T15:49:00.830Z,8.27
2024-02-13T15:51:29.737Z,7.27
2024-02-13T15:53:56.525Z,3.40
2024-02-13T15:56:23.228Z,6.60
2024-02-13T15:58:50.936Z,4.63
2024-02-13T16:01:18.694Z,6.40
2024-02-13T16:03:45.532Z,7.00
2024-02-13T16:06:12.682Z,10.80
2024-02-13T16:08:39.842Z,10.17
2024-02-13T16:11:07.349Z,5.43
2024-02-13T16:13:33.970Z,13.20
2024-02-13T16:16:01.521Z,2.73
2024-02-13T16:18:28.642Z,5.10
2024-02-13T16:20:55.378Z,6.03
2024-02-13T16:23:22.133Z,6.43
2024-02-13T16:25:48.963Z,16.90
2024-02-13T16:28:15.633Z,2.30
2024-02-13T16:30:45.024Z,5.80
2024-02-13T16:33:13.436Z,3.20
2024-02-13T16:35:41.326Z,4.47
2024-02-13T16:38:08.358Z,4.43
2024-02-13T16:40:35.120Z,7.03
2024-02-13T16:43:05.274Z,2.20
2024-02-13T16:45:32.471Z,4.30
2024-02-13T16:47:59.750Z,4.17
2024-02-13T16:50:28.990Z,4.20
2024-02-13T16:52:55.856Z,6.97
2024-02-13T16:55:25.535Z,6.20
2024-02-13T16:57:53.090Z,6.30
2024-02-13T17:00:23.267Z,5.47
2024-02-13T17:02:50.472Z,2.57
2024-02-13T17:05:19.227Z,7.63
2024-02-13T17:07:46.689Z,9.93
2024-02-13T17:10:13.801Z,8.00
2024-02-13T17:12:41.117Z,6.03
2024-02-13T17:15:09.065Z,4.70
2024-02-13T17:17:35.966Z,11.47
2024-02-13T17:20:05.020Z,10.23
2024-02-13T17:22:31.850Z,6.10
2024-02-13T17:24:58.481Z,5.13
2024-02-13T17:27:25.509Z,7.40
2024-02-13T17:29:52.915Z,11.03
2024-02-13T17:32:19.571Z,5.50
2024-02-13T17:34:46.184Z,6.83
2024-02-13T17:37:13.274Z,7.13
2024-02-13T17:39:40.212Z,6.40
2024-02-13T17:42:06.996Z,7.80
2024-02-13T17:44:34.790Z,8.40
2024-02-13T17:47:01.421Z,3.10
2024-02-13T17:49:28.375Z,5.23
2024-02-13T17:51:54.960Z,7.10
2024-02-13T17:54:24.471Z,5.23
2024-02-13T17:56:51.952Z,6.40
2024-02-13T17:59:18.647Z,3.10
2024-02-13T18:01:49.692Z,3.70
2024-02-13T18:04:17.191Z,5.23
2024-02-13T18:06:44.550Z,7.80
2024-02-13T18:09:11.684Z,6.77
2024-02-13T18:11:39.089Z,11.87
2024-02-13T18:14:08.936Z,7.67
2024-02-13T18:16:35.566Z,6.97
2024-02-13T18:19:06.946Z,7.00
2024-02-13T18:21:34.053Z,11.53
2024-02-13T18:24:02.531Z,2.30
2024-02-13T18:26:30.088Z,5.70
2024-02-13T18:28:57.732Z,4.67
2024-02-13T18:31:25.170Z,11.70
2024-02-13T18:33:52.204Z,2.40
2024-02-13T18:36:19.548Z,6.83
2024-02-13T18:38:48.766Z,5.07
2024-02-13T18:41:15.432Z,4.03
2024-02-13T18:43:42.050Z,3.37
2024-02-13T18:46:10.836Z,3.17
2024-02-13T18:48:39.008Z,6.30
2024-02-13T18:51:06.191Z,3.23
2024-02-13T18:53:33.082Z,6.03
2024-02-13T18:55:59.710Z,3.47
2024-02-13T18:58:26.423Z,5.23
2024-02-13T19:00:53.043Z,6.00
2024-02-13T19:03:21.355Z,3.63
2024-02-13T19:05:49.324Z,5.27
2024-02-13T19:08:16.312Z,3.23
2024-02-13T19:10:43.272Z,4.63
2024-02-13T19:13:09.896Z,3.03
2024-02-13T19:15:36.883Z,9.20
2024-02-13T19:18:04.212Z,9.40
2024-02-13T19:20:31.162Z,5.37
2024-02-13T19:22:57.770Z,5.70
2024-02-13T19:25:24.375Z,8.80
2024-02-13T19:27:51.047Z,3.17
2024-02-13T19:30:17.810Z,2.73
2024-02-13T19:32:57.484Z,2.03
2024-02-13T19:35:24.380Z,2.53
2024-02-13T19:37:52.159Z,10.10
2024-02-13T19:40:19.805Z,5.67
2024-02-13T19:42:54.020Z,4.20
2024-02-13T19:45:21.557Z,5.40
2024-02-13T19:47:54.391Z,6.03
2024-02-13T19:50:41.246Z,3.37
2024-02-13T19:53:28.396Z,2.43
2024-02-13T19:56:15.401Z,3.93
2024-02-13T19:59:02.218Z,3.70
2024-02-13T20:01:49.405Z,4.13
2024-02-13T20:04:36.006Z,5.10
2024-02-13T20:07:22.646Z,5.13
2024-02-13T20:09:49.250Z,6.03
2024-02-13T20:12:17.467Z,5.30
2024-02-13T20:14:45.386Z,2.83
2024-02-13T20:17:12.028Z,2.37
2024-02-13T20:19:38.793Z,6.00
2024-02-13T20:22:05.407Z,11.10
2024-02-13T20:24:33.760Z,1.70
2024-02-13T20:27:01.001Z,1.73
2024-02-13T20:29:27.694Z,2.87
2024-02-13T20:31:54.991Z,7.90
2024-02-13T20:34:23.934Z,2.33
2024-02-13T20:36:54.397Z,2.70
2024-02-13T20:39:21.503Z,6.03
2024-02-13T20:41:48.600Z,3.47
2024-02-13T20:44:15.760Z,2.83
2024-02-13T20:46:43.743Z,1.70
2024-02-13T20:49:13.575Z,1.73
2024-02-13T20:51:42.953Z,4.93
2024-02-13T20:54:13.380Z,1.87
2024-02-13T20:56:40.682Z,2.17
2024-02-13T20:59:09.559Z,3.47
2024-02-13T21:01:39.265Z,3.53
2024-02-13T21:04:12.591Z,2.00
2024-02-13T21:06:42.147Z,8.97
2024-02-13T21:09:11.357Z,4.10
2024-02-13T21:11:38.195Z,2.37
2024-02-13T21:14:05.364Z,1.80
2024-02-13T21:16:34.512Z,3.77
2024-02-13T21:19:02.881Z,4.30
2024-02-13T21:21:48.156Z,1.70
2024-02-13T21:24:14.953Z,3.93
2024-02-13T21:26:41.738Z,1.83
2024-02-13T21:29:09.026Z,2.27
2024-02-13T21:31:37.582Z,5.43
2024-02-13T21:34:06.887Z,2.10
2024-02-13T21:36:35.743Z,1.70
2024-02-13T21:39:08.519Z,1.23
2024-02-13T21:41:36.692Z,1.80
2024-02-13T21:44:04.091Z,2.83
2024-02-13T21:46:31.232Z,5.60
2024-02-13T21:48:58.364Z,1.67
2024-02-13T21:51:25.779Z,1.40
2024-02-13T21:53:53.591Z,7.50
2024-02-13T21:56:21.155Z,2.97
2024-02-13T21:58:48.929Z,2.13
2024-02-13T22:01:16.669Z,2.77
2024-02-13T22:03:43.482Z,7.23
2024-02-13T22:06:11.710Z,2.77
2024-02-13T22:08:38.461Z,1.10
2024-02-13T22:11:05.086Z,3.80
2024-02-13T22:13:31.673Z,1.77
2024-02-13T22:15:59.113Z,4.77
2024-02-13T22:18:26.503Z,4.43
2024-02-13T22:20:53.594Z,5.00
2024-02-13T22:23:20.323Z,2.53
2024-02-13T22:25:46.877Z,1.60
2024-02-13T22:28:14.929Z,1.77
2024-02-13T22:30:43.209Z,1.90
2024-02-13T22:33:22.822Z,3.23
2024-02-13T22:35:49.582Z,1.50
2024-02-13T22:38:16.237Z,5.40
2024-02-13T22:40:42.878Z,1.27
2024-02-13T22:43:09.492Z,1.60
2024-02-13T22:45:36.334Z,1.27
2024-02-13T22:48:03.252Z,1.77
2024-02-13T22:50:30.583Z,1.40
2024-02-13T22:52:59.632Z,1.27
2024-02-13T22:55:30.117Z,1.13
2024-02-13T22:57:58.411Z,1.90
2024-02-13T23:00:49.531Z,1.63
2024-02-13T23:03:17.328Z,2.43
2024-02-13T23:05:54.826Z,2.63
2024-02-13T23:08:22.382Z,2.20
2024-02-13T23:10:49.218Z,1.63
2024-02-13T23:13:17.991Z,2.30
2024-02-13T23:15:44.586Z,1.57
2024-02-13T23:18:13.066Z,4.00
2024-02-13T23:20:40.347Z,1.00
2024-02-13T23:23:07.462Z,4.33
2024-02-13T23:25:36.379Z,1.47
2024-02-13T23:28:07.310Z,7.47
2024-02-13T23:30:36.006Z,1.37
2024-02-13T23:33:03.154Z,1.13
2024-02-13T23:35:29.980Z,1.50
2024-02-13T23:37:56.678Z,2.40
2024-02-13T23:40:23.863Z,3.17
2024-02-13T23:42:52.740Z,2.93
2024-02-13T23:45:19.494Z,4.47
2024-02-13T23:47:47.849Z,1.23
2024-02-13T23:50:14.812Z,1.97
2024-02-13T23:52:42.372Z,1.97
2024-02-13T23:55:12.317Z,3.93
2024-02-13T23:57:41.549Z,4.93
